createdAt,value
2019-01-16T00:01:36.033Z,7.50
2019-01-16T00:04:04.962Z,7.50
2019-01-16T00:06:48.583Z,7.50
2019-01-16T00:09:35.177Z,7.50
2019-01-16T00:12:06.555Z,7.50
2019-01-16T00:14:34.990Z,7.60
2019-01-16T00:17:03.727Z,7.60
2019-01-16T00:19:32.275Z,7.60
2019-01-16T00:22:06.370Z,7.60
2019-01-16T00:24:37.873Z,7.60
2019-01-16T00:27:15.578Z,7.60
2019-01-16T00:29:50.175Z,7.70
2019-01-16T00:32:18.601Z,7.70
2019-01-16T00:34:50.093Z,7.60
2019-01-16T00:37:18.534Z,7.70
2019-01-16T00:40:04.157Z,7.70
2019-01-16T00:42:32.494Z,7.70
2019-01-16T00:45:01.046Z,7.70
2019-01-16T00:47:29.735Z,7.70
2019-01-16T00:49:58.174Z,7.70
2019-01-16T00:52:43.560Z,7.70
2019-01-16T00:55:12.041Z,7.70
2019-01-16T00:57:43.435Z,7.70
2019-01-16T01:00:23.351Z,7.70
2019-01-16T01:02:53.487Z,7.70
2019-01-16T01:05:24.751Z,7.70
2019-01-16T01:08:08.582Z,7.80
2019-01-16T01:10:36.967Z,7.90
2019-01-16T01:13:07.990Z,7.80
2019-01-16T01:15:42.505Z,7.60
2019-01-16T01:18:17.003Z,7.60
2019-01-16T01:20:57.343Z,7.60
2019-01-16T01:23:26.084Z,7.60
2019-01-16T01:26:06.635Z,7.70
2019-01-16T01:28:40.808Z,7.70
2019-01-16T01:31:21.708Z,7.60
2019-01-16T01:33:56.208Z,7.50
2019-01-16T01:36:27.187Z,7.60
2019-01-16T01:39:02.205Z,7.50
2019-01-16T01:41:30.686Z,7.50
2019-01-16T01:44:11.222Z,7.50
2019-01-16T01:46:55.052Z,7.40
2019-01-16T01:49:40.206Z,7.40
2019-01-16T01:52:17.369Z,7.40
2019-01-16T01:54:54.773Z,7.40
2019-01-16T01:57:25.852Z,7.40
2019-01-16T01:59:54.281Z,7.60
2019-01-16T02:02:22.786Z,7.50
2019-01-16T02:05:00.298Z,7.40
2019-01-16T02:07:43.821Z,7.40
2019-01-16T02:10:15.523Z,7.40
2019-01-16T02:12:44.054Z,7.40
2019-01-16T02:15:19.579Z,7.30
2019-01-16T02:17:48.794Z,7.40
2019-01-16T02:20:17.663Z,7.50
2019-01-16T02:22:46.093Z,7.50
2019-01-16T02:25:26.952Z,7.50
2019-01-16T02:27:58.241Z,7.50
2019-01-16T02:30:45.500Z,7.40
2019-01-16T02:33:17.431Z,7.40
2019-01-16T02:35:46.098Z,7.50
2019-01-16T02:38:29.335Z,7.50
2019-01-16T02:41:03.754Z,7.50
2019-01-16T02:43:34.682Z,7.50
2019-01-16T02:46:08.911Z,7.50
2019-01-16T02:48:37.326Z,7.40
2019-01-16T02:51:11.914Z,7.30
2019-01-16T02:53:56.792Z,7.40
2019-01-16T02:56:31.206Z,7.40
2019-01-16T02:59:05.686Z,7.40
2019-01-16T03:01:37.525Z,7.50
2019-01-16T03:04:06.656Z,7.50
2019-01-16T03:06:39.674Z,7.40
2019-01-16T03:09:11.540Z,7.50
2019-01-16T03:11:46.267Z,7.40
2019-01-16T03:14:31.381Z,7.40
2019-01-16T03:17:00.017Z,7.40
2019-01-16T03:19:30.097Z,7.30
2019-01-16T03:22:11.008Z,7.30
2019-01-16T03:24:51.864Z,7.30
2019-01-16T03:27:23.057Z,7.30
2019-01-16T03:30:00.691Z,7.30
2019-01-16T03:32:44.655Z,7.30
2019-01-16T03:35:15.832Z,7.40
2019-01-16T03:38:01.276Z,7.30
2019-01-16T03:40:47.206Z,7.40
2019-01-16T03:43:15.795Z,7.30
2019-01-16T03:45:56.812Z,7.40
2019-01-16T03:48:31.541Z,7.40
2019-01-16T03:51:00.065Z,7.40
2019-01-16T03:53:29.131Z,7.40
2019-01-16T03:56:00.409Z,7.30
2019-01-16T03:58:30.461Z,7.40
2019-01-16T04:01:15.682Z,7.30
2019-01-16T04:03:44.260Z,7.30
2019-01-16T04:06:12.768Z,7.30
2019-01-16T04:08:47.005Z,7.30
2019-01-16T04:11:24.134Z,7.30
2019-01-16T04:13:55.379Z,7.30
2019-01-16T04:16:29.758Z,7.30
2019-01-16T04:18:58.418Z,7.30
2019-01-16T04:21:32.756Z,7.30
2019-01-16T04:24:16.397Z,7.30
2019-01-16T04:27:03.498Z,7.20
2019-01-16T04:29:31.999Z,7.20
2019-01-16T04:32:06.389Z,7.20
2019-01-16T04:34:49.970Z,7.20
2019-01-16T04:37:18.628Z,7.20
2019-01-16T04:39:47.162Z,7.30
2019-01-16T04:42:21.507Z,7.30
2019-01-16T04:44:55.494Z,7.40
2019-01-16T04:47:38.867Z,7.30
2019-01-16T04:50:17.903Z,7.30
2019-01-16T04:52:49.261Z,7.20
2019-01-16T04:55:17.897Z,7.30
2019-01-16T04:57:52.220Z,7.20
2019-01-16T05:00:31.496Z,7.30
2019-01-16T05:03:17.018Z,7.30
2019-01-16T05:05:45.635Z,7.20
2019-01-16T05:08:30.907Z,7.20
2019-01-16T05:11:05.502Z,7.30
2019-01-16T05:13:36.545Z,7.30
2019-01-16T05:16:08.736Z,7.20
2019-01-16T05:18:37.316Z,7.40
2019-01-16T05:21:09.097Z,7.30
2019-01-16T05:23:43.400Z,7.30
2019-01-16T05:26:20.582Z,7.40
2019-01-16T05:28:50.743Z,7.30
2019-01-16T05:31:35.755Z,7.30
2019-01-16T05:34:19.943Z,7.30
2019-01-16T05:37:03.431Z,7.30
2019-01-16T05:39:31.885Z,7.40
2019-01-16T05:42:17.282Z,7.40
2019-01-16T05:45:02.366Z,7.40
2019-01-16T05:47:30.789Z,7.30
2019-01-16T05:50:05.558Z,7.30
2019-01-16T05:52:51.895Z,7.40
2019-01-16T05:55:26.134Z,7.40
2019-01-16T05:57:54.669Z,7.40
2019-01-16T06:00:28.693Z,7.40
2019-01-16T06:03:12.528Z,7.50
2019-01-16T06:05:55.808Z,7.50
2019-01-16T06:08:24.345Z,7.40
2019-01-16T06:11:01.872Z,7.30
2019-01-16T06:13:36.465Z,7.30
2019-01-16T06:16:10.836Z,7.30
2019-01-16T06:18:42.298Z,7.40
2019-01-16T06:21:27.200Z,7.40
2019-01-16T06:24:04.998Z,7.40
2019-01-16T06:26:33.660Z,7.40
2019-01-16T06:29:02.222Z,7.30
2019-01-16T06:31:47.303Z,7.30
2019-01-16T06:34:30.902Z,7.30
2019-01-16T06:36:59.978Z,7.30
2019-01-16T06:39:37.693Z,7.20
2019-01-16T06:42:09.030Z,7.30
2019-01-16T06:44:37.553Z,7.20
2019-01-16T06:47:12.517Z,7.20
2019-01-16T06:49:47.130Z,7.20
2019-01-16T06:52:21.580Z,7.20
2019-01-16T06:55:02.017Z,7.10
2019-01-16T06:57:45.647Z,7.10
2019-01-16T07:00:31.948Z,7.00
2019-01-16T07:03:17.770Z,7.10
2019-01-16T07:06:03.018Z,7.10
2019-01-16T07:08:34.381Z,7.10
2019-01-16T07:11:02.945Z,7.20
2019-01-16T07:13:31.356Z,7.10
2019-01-16T07:15:59.809Z,7.10
2019-01-16T07:18:28.337Z,7.10
2019-01-16T07:20:56.785Z,7.10
2019-01-16T07:23:37.351Z,7.10
2019-01-16T07:26:05.831Z,7.20
2019-01-16T07:28:34.256Z,7.20
2019-01-16T07:31:20.996Z,7.10
2019-01-16T07:34:06.302Z,7.10
2019-01-16T07:36:34.889Z,7.10
2019-01-16T07:39:21.208Z,7.10
2019-01-16T07:41:58.316Z,7.00
2019-01-16T07:44:29.279Z,7.10
2019-01-16T07:47:09.569Z,7.10
2019-01-16T07:49:43.629Z,7.00
2019-01-16T07:52:12.085Z,7.00
2019-01-16T07:54:46.468Z,7.10
2019-01-16T07:57:31.697Z,7.00
2019-01-16T08:00:12.321Z,7.10
2019-01-16T08:02:40.899Z,7.00
2019-01-16T08:05:09.425Z,7.00
2019-01-16T08:07:40.760Z,7.00
2019-01-16T08:10:23.850Z,7.00
2019-01-16T08:12:52.321Z,7.00
2019-01-16T08:15:33.234Z,7.00
2019-01-16T08:18:01.816Z,7.00
2019-01-16T08:20:33.128Z,7.00
2019-01-16T08:23:04.650Z,7.10
2019-01-16T08:25:39.156Z,7.00
2019-01-16T08:28:13.766Z,7.00
2019-01-16T08:30:57.550Z,7.00
2019-01-16T08:33:42.857Z,7.00
2019-01-16T08:36:14.435Z,7.00
2019-01-16T08:38:43.048Z,6.90
2019-01-16T08:41:23.685Z,7.00
2019-01-16T08:44:13.637Z,6.90
2019-01-16T08:46:41.693Z,7.00
2019-01-16T08:49:26.764Z,7.00
2019-01-16T08:52:04.050Z,7.00
2019-01-16T08:54:38.070Z,7.00
2019-01-16T08:57:06.706Z,7.00
2019-01-16T08:59:35.266Z,7.10
2019-01-16T09:02:06.595Z,7.00
2019-01-16T09:04:47.370Z,7.00
2019-01-16T09:07:30.905Z,7.10
2019-01-16T09:09:59.377Z,7.00
2019-01-16T09:12:37.018Z,7.10
2019-01-16T09:15:24.256Z,7.00
2019-01-16T09:17:53.044Z,7.00
2019-01-16T09:20:40.065Z,7.00
2019-01-16T09:23:08.713Z,7.00
2019-01-16T09:25:37.280Z,7.00
2019-01-16T09:28:17.496Z,7.10
2019-01-16T09:30:58.061Z,7.10
2019-01-16T09:33:35.657Z,7.10
2019-01-16T09:36:10.104Z,7.10
2019-01-16T09:38:55.837Z,7.20
2019-01-16T09:41:40.877Z,7.20
2019-01-16T09:44:18.658Z,7.10
2019-01-16T09:46:51.072Z,7.10
2019-01-16T09:49:22.400Z,7.20
2019-01-16T09:51:50.935Z,7.20
2019-01-16T09:54:25.447Z,7.30
2019-01-16T09:57:10.852Z,7.20
2019-01-16T09:59:41.826Z,7.20
2019-01-16T10:02:10.466Z,7.10
2019-01-16T10:04:56.839Z,7.20
2019-01-16T10:07:31.279Z,7.30
2019-01-16T10:10:08.670Z,7.20
2019-01-16T10:12:39.637Z,7.20
2019-01-16T10:15:27.394Z,7.20
2019-01-16T10:17:58.726Z,7.20
2019-01-16T10:20:46.273Z,7.20
2019-01-16T10:23:29.926Z,7.30
2019-01-16T10:26:00.897Z,7.30
2019-01-16T10:28:47.501Z,7.50
2019-01-16T10:31:25.152Z,7.40
2019-01-16T10:34:10.729Z,7.30
2019-01-16T10:36:56.127Z,7.40
2019-01-16T10:39:41.529Z,7.40
2019-01-16T10:42:12.860Z,7.40
2019-01-16T10:44:50.224Z,7.40
2019-01-16T10:47:18.764Z,7.40
2019-01-16T10:49:59.697Z,7.40
2019-01-16T10:52:28.128Z,7.40
2019-01-16T10:54:59.352Z,7.30
2019-01-16T10:57:36.734Z,7.40
2019-01-16T11:00:09.968Z,7.40
2019-01-16T11:02:45.908Z,7.40
2019-01-16T11:05:16.901Z,7.40
2019-01-16T11:07:54.072Z,7.50
2019-01-16T11:10:22.446Z,7.50
2019-01-16T11:12:50.888Z,7.50
2019-01-16T11:15:22.532Z,7.60
2019-01-16T11:18:07.933Z,7.60
2019-01-16T11:20:36.696Z,7.60
2019-01-16T11:23:14.812Z,7.70
2019-01-16T11:25:59.792Z,7.60
2019-01-16T11:28:37.320Z,7.60
2019-01-16T11:31:06.039Z,7.70
2019-01-16T11:33:51.154Z,7.70
2019-01-16T11:36:22.149Z,7.80
2019-01-16T11:38:56.105Z,7.80
2019-01-16T11:41:36.482Z,7.80
2019-01-16T11:44:23.434Z,7.70
2019-01-16T11:46:57.433Z,7.60
2019-01-16T11:49:25.856Z,7.60
2019-01-16T11:52:02.076Z,7.60
2019-01-16T11:54:45.688Z,7.70
2019-01-16T11:57:17.348Z,7.70
2019-01-16T11:59:45.874Z,7.60
2019-01-16T12:02:20.484Z,7.70
2019-01-16T12:04:54.781Z,7.70
2019-01-16T12:07:32.124Z,7.70
2019-01-16T12:10:09.711Z,7.70
2019-01-16T12:12:54.490Z,7.70
2019-01-16T12:15:39.636Z,7.80
2019-01-16T12:18:08.065Z,7.80
2019-01-16T12:20:51.388Z,7.70
2019-01-16T12:23:36.733Z,7.60
2019-01-16T12:26:23.311Z,7.50
2019-01-16T12:28:51.729Z,7.50
2019-01-16T12:31:26.228Z,7.40
2019-01-16T12:34:06.948Z,7.30
2019-01-16T12:36:38.068Z,7.30
2019-01-16T12:39:11.765Z,7.30
2019-01-16T12:41:59.383Z,7.30
2019-01-16T12:44:25.872Z,7.20
2019-01-16T12:46:54.237Z,7.30
2019-01-16T12:49:40.640Z,7.30
2019-01-16T12:52:15.262Z,7.10
2019-01-16T12:55:00.337Z,7.10
2019-01-16T12:57:45.635Z,7.00
2019-01-16T13:00:15.792Z,7.10
2019-01-16T13:02:50.032Z,7.10
2019-01-16T13:05:30.786Z,7.10
2019-01-16T13:07:59.354Z,7.20
2019-01-16T13:10:27.879Z,7.10
2019-01-16T13:13:05.646Z,7.20
2019-01-16T13:15:40.172Z,7.20
2019-01-16T13:18:08.641Z,7.20
2019-01-16T13:20:45.642Z,7.20
2019-01-16T13:23:25.800Z,7.30
2019-01-16T13:25:54.383Z,7.30
2019-01-16T13:28:26.199Z,7.40
2019-01-16T13:30:54.613Z,7.30
2019-01-16T13:33:23.041Z,7.30
2019-01-16T13:35:51.512Z,7.30
2019-01-16T13:38:19.994Z,7.40
2019-01-16T13:40:51.193Z,7.40
2019-01-16T13:43:22.313Z,7.40
2019-01-16T13:46:07.885Z,7.40
2019-01-16T13:48:53.026Z,7.30
2019-01-16T13:51:27.340Z,7.30
2019-01-16T13:54:10.931Z,7.20
2019-01-16T13:56:40.287Z,7.20
2019-01-16T13:59:09.422Z,7.20
2019-01-16T14:01:43.953Z,7.40
2019-01-16T14:04:18.525Z,7.30
2019-01-16T14:06:50.027Z,7.30
2019-01-16T14:09:24.418Z,7.30
2019-01-16T14:12:09.387Z,7.30
2019-01-16T14:14:43.659Z,7.20
2019-01-16T14:17:18.029Z,7.20
2019-01-16T14:19:52.520Z,7.10
2019-01-16T14:22:39.559Z,7.10
2019-01-16T14:25:17.550Z,7.10
2019-01-16T14:27:51.934Z,7.10
2019-01-16T14:30:32.945Z,7.10
2019-01-16T14:33:05.461Z,7.10
2019-01-16T14:35:34.046Z,7.20
2019-01-16T14:38:03.542Z,7.20
2019-01-16T14:40:32.113Z,7.20
2019-01-16T14:43:15.905Z,7.20
2019-01-16T14:46:02.664Z,7.20
2019-01-16T14:48:31.133Z,7.00
2019-01-16T14:50:59.718Z,7.00
2019-01-16T14:53:28.141Z,7.10
2019-01-16T14:56:09.244Z,7.20
2019-01-16T14:58:44.186Z,7.20
2019-01-16T15:01:15.564Z,7.10
2019-01-16T15:04:01.874Z,7.20
2019-01-16T15:06:42.357Z,7.10
2019-01-16T15:09:11.741Z,7.10
2019-01-16T15:11:40.221Z,7.00
2019-01-16T15:14:25.112Z,7.00
2019-01-16T15:16:53.695Z,7.00
2019-01-16T15:19:24.990Z,7.00
2019-01-16T15:22:06.436Z,7.00
2019-01-16T15:24:35.056Z,7.00
2019-01-16T15:27:03.617Z,7.10
2019-01-16T15:29:41.142Z,7.10
2019-01-16T15:32:27.657Z,7.10
2019-01-16T15:34:56.332Z,7.10
2019-01-16T15:37:27.777Z,7.00
2019-01-16T15:40:01.840Z,7.00
2019-01-16T15:42:48.236Z,6.90
2019-01-16T15:45:25.740Z,6.70
2019-01-16T15:48:12.217Z,6.40
2019-01-16T15:50:40.694Z,6.40
2019-01-16T15:53:15.205Z,6.40
2019-01-16T15:55:59.147Z,6.40
2019-01-16T15:58:39.648Z,6.40
2019-01-16T16:01:15.297Z,6.40
2019-01-16T16:04:01.079Z,6.40
2019-01-16T16:06:38.496Z,6.40
2019-01-16T16:09:14.237Z,6.30
2019-01-16T16:11:42.808Z,6.40
2019-01-16T16:14:17.346Z,6.50
2019-01-16T16:16:51.599Z,6.50
2019-01-16T16:19:28.789Z,6.60
2019-01-16T16:22:09.076Z,6.60
2019-01-16T16:24:37.604Z,6.50
2019-01-16T16:27:06.214Z,6.40
2019-01-16T16:29:35.399Z,6.40
2019-01-16T16:32:12.733Z,6.40
2019-01-16T16:34:47.189Z,6.50
2019-01-16T16:37:27.753Z,6.60
2019-01-16T16:39:56.275Z,6.40
2019-01-16T16:42:36.996Z,6.40
2019-01-16T16:45:11.969Z,6.40
2019-01-16T16:48:07.728Z,6.40
2019-01-16T16:50:36.119Z,6.40
2019-01-16T16:53:23.428Z,6.40
2019-01-16T16:55:54.726Z,6.40
2019-01-16T16:58:23.279Z,6.50
2019-01-16T17:00:58.145Z,6.60
2019-01-16T17:03:26.578Z,6.50
2019-01-16T17:06:01.480Z,6.50
2019-01-16T17:08:48.178Z,6.50
2019-01-16T17:11:28.762Z,6.50
2019-01-16T17:14:00.114Z,6.40
2019-01-16T17:16:45.196Z,6.30
2019-01-16T17:19:21.437Z,6.40
2019-01-16T17:21:52.462Z,6.30
2019-01-16T17:24:26.819Z,6.30
2019-01-16T17:26:55.407Z,6.20
2019-01-16T17:29:32.818Z,6.30
2019-01-16T17:32:01.390Z,6.30
2019-01-16T17:34:36.013Z,6.30
2019-01-16T17:37:04.636Z,6.30
2019-01-16T17:39:35.814Z,6.30
2019-01-16T17:42:05.504Z,6.30
2019-01-16T17:44:53.322Z,6.20
2019-01-16T17:47:31.162Z,6.20
2019-01-16T17:50:02.972Z,6.20
2019-01-16T17:52:32.008Z,6.30
2019-01-16T17:55:16.689Z,6.30
2019-01-16T17:57:49.334Z,6.30
2019-01-16T18:00:34.761Z,6.20
2019-01-16T18:03:05.086Z,6.30
2019-01-16T18:05:41.324Z,6.30
2019-01-16T18:08:18.978Z,6.30
2019-01-16T18:10:49.844Z,6.40
2019-01-16T18:13:20.850Z,6.30
2019-01-16T18:15:55.293Z,6.30
2019-01-16T18:18:23.753Z,6.30
2019-01-16T18:20:57.784Z,6.20
2019-01-16T18:23:34.930Z,6.30
2019-01-16T18:26:06.508Z,6.30
2019-01-16T18:28:43.711Z,6.30
2019-01-16T18:31:12.130Z,6.30
2019-01-16T18:33:40.706Z,6.30
2019-01-16T18:36:09.247Z,6.20
2019-01-16T18:38:40.480Z,6.30
2019-01-16T18:41:14.816Z,6.30
2019-01-16T18:44:00.484Z,6.30
2019-01-16T18:46:34.372Z,6.20
2019-01-16T18:49:09.079Z,6.20
2019-01-16T18:51:37.558Z,6.10
2019-01-16T18:54:23.274Z,6.20
2019-01-16T18:57:00.617Z,6.20
2019-01-16T18:59:29.262Z,6.10
2019-01-16T19:02:15.564Z,6.00
2019-01-16T19:04:44.041Z,6.10
2019-01-16T19:07:18.633Z,6.20
2019-01-16T19:09:49.873Z,6.10
2019-01-16T19:12:30.669Z,6.10
2019-01-16T19:15:05.147Z,6.10
2019-01-16T19:17:50.506Z,6.10
2019-01-16T19:20:28.777Z,6.10
2019-01-16T19:23:00.258Z,6.10
2019-01-16T19:25:28.923Z,6.00
2019-01-16T19:28:03.477Z,6.10
2019-01-16T19:30:32.236Z,6.10
2019-01-16T19:33:03.845Z,6.20
2019-01-16T19:35:38.721Z,6.10
2019-01-16T19:38:16.346Z,6.00
2019-01-16T19:40:44.828Z,6.00
2019-01-16T19:43:13.298Z,6.00
2019-01-16T19:45:54.101Z,6.00
2019-01-16T19:48:41.250Z,6.00
2019-01-16T19:51:09.816Z,6.00
2019-01-16T19:53:50.482Z,6.00
2019-01-16T19:56:19.186Z,6.00
2019-01-16T19:58:47.620Z,6.00
2019-01-16T20:01:28.655Z,5.90
2019-01-16T20:03:57.305Z,5.80
2019-01-16T20:06:42.548Z,5.80
2019-01-16T20:09:27.822Z,5.80
2019-01-16T20:11:56.250Z,5.70
2019-01-16T20:14:37.059Z,5.60
2019-01-16T20:17:25.341Z,5.60
2019-01-16T20:19:55.518Z,5.70
2019-01-16T20:22:41.142Z,5.60
2019-01-16T20:25:10.308Z,5.60
2019-01-16T20:27:55.504Z,5.60
2019-01-16T20:30:24.177Z,5.60
2019-01-16T20:32:52.729Z,5.40
2019-01-16T20:35:27.284Z,5.30
2019-01-16T20:38:11.091Z,5.30
2019-01-16T20:40:56.621Z,5.40
2019-01-16T20:43:40.313Z,5.30
2019-01-16T20:46:27.056Z,5.30
2019-01-16T20:49:04.633Z,5.30
2019-01-16T20:51:50.104Z,5.30
2019-01-16T20:54:18.642Z,5.20
2019-01-16T20:56:53.056Z,5.10
2019-01-16T20:59:24.961Z,5.20
2019-01-16T21:02:02.744Z,5.20
2019-01-16T21:04:34.106Z,5.30
2019-01-16T21:07:05.456Z,5.30
2019-01-16T21:09:40.888Z,5.40
2019-01-16T21:12:25.970Z,5.40
2019-01-16T21:14:54.543Z,5.40
2019-01-16T21:17:23.629Z,5.30
2019-01-16T21:19:55.233Z,5.30
2019-01-16T21:22:26.443Z,5.40
2019-01-16T21:24:57.842Z,5.30
2019-01-16T21:27:29.175Z,5.30
2019-01-16T21:30:14.337Z,5.20
2019-01-16T21:32:48.572Z,5.30
2019-01-16T21:35:25.944Z,5.40
2019-01-16T21:38:00.941Z,5.30
2019-01-16T21:40:29.413Z,5.30
2019-01-16T21:43:03.657Z,5.30
2019-01-16T21:45:32.230Z,5.30
2019-01-16T21:48:10.089Z,5.30
2019-01-16T21:50:44.590Z,5.20
2019-01-16T21:53:22.142Z,5.20
2019-01-16T21:55:53.705Z,5.10
2019-01-16T21:58:30.975Z,5.20
2019-01-16T22:01:02.361Z,5.00
2019-01-16T22:03:36.924Z,5.10
2019-01-16T22:06:11.536Z,5.00
2019-01-16T22:08:40.206Z,5.10
2019-01-16T22:11:17.393Z,5.00
2019-01-16T22:13:49.048Z,5.10
2019-01-16T22:16:17.580Z,5.10
2019-01-16T22:19:01.527Z,5.10
2019-01-16T22:21:30.159Z,5.20
2019-01-16T22:23:58.732Z,5.10
2019-01-16T22:26:27.652Z,5.20
2019-01-16T22:29:05.185Z,5.10
2019-01-16T22:31:33.608Z,5.20
2019-01-16T22:34:02.168Z,5.20
2019-01-16T22:36:46.081Z,5.20
2019-01-16T22:39:20.327Z,5.20
2019-01-16T22:41:54.861Z,5.20
2019-01-16T22:44:35.275Z,5.10
2019-01-16T22:47:16.104Z,5.10
2019-01-16T22:49:44.674Z,5.10
2019-01-16T22:52:24.974Z,5.20
2019-01-16T22:54:56.226Z,5.20
2019-01-16T22:57:42.920Z,5.10
2019-01-16T23:00:47.873Z,5.20
2019-01-16T23:03:33.140Z,5.20
2019-01-16T23:06:16.714Z,5.20
2019-01-16T23:08:51.293Z,5.20
2019-01-16T23:11:21.426Z,5.10
2019-01-16T23:13:49.886Z,5.20
2019-01-16T23:16:21.247Z,5.30
2019-01-16T23:18:52.625Z,5.30
2019-01-16T23:21:29.954Z,5.30
2019-01-16T23:23:59.497Z,5.20
2019-01-16T23:26:30.531Z,5.30
2019-01-16T23:29:01.758Z,5.20
2019-01-16T23:31:33.085Z,5.20
2019-01-16T23:34:18.222Z,5.20
2019-01-16T23:37:03.413Z,5.20
2019-01-16T23:39:46.954Z,5.20
2019-01-16T23:42:27.186Z,5.20
2019-01-16T23:44:55.642Z,5.20
2019-01-16T23:47:40.481Z,5.20
2019-01-16T23:50:13.077Z,5.30
2019-01-16T23:52:53.649Z,5.30
2019-01-16T23:55:30.966Z,5.20
2019-01-16T23:58:02.753Z,5.20
